Time;durP1;ratioP1;P1;durP2;ratioP2;P2;SDS_P1;SDS_P2;PMS_P1;PMS_P2;Temp;Humidity;BMP_temperature;BMP_pressure;BME280_temperature;BME280_humidity;BME280_pressure;Samples;Min_cycle;Max_cycle;Signal;HPM_P1;HPM_P2
2022/09/20 05:01:19;;;;;;;4.63;1.38;;;;;;;;;;5962215;22;20521;-92
2022/09/20 05:04:00;;;;;;;2.17;1.33;;;;;;;;;;5032979;28;20449;-92
2022/09/20 05:06:39;;;;;;;2.20;1.00;;;;;;;;;;5026589;28;20450;-93
2022/09/20 05:09:15;;;;;;;2.92;1.10;;;;;;;;;;5022898;28;20379;-90
2022/09/20 05:11:46;;;;;;;2.33;1.20;;;;;;;;;;5016481;28;20742;-90
2022/09/20 05:14:12;;;;;;;3.80;1.40;;;;;;;;;;5016334;28;20389;-92
2022/09/20 05:16:54;;;;;;;2.30;1.30;;;;;;;;;;5010825;28;20469;-89
2022/09/20 05:19:50;;;;;;;2.80;1.30;;;;;;;;;;5010236;28;20412;-89
2022/09/20 05:22:35;;;;;;;3.43;1.17;;;;;;;;;;4998433;28;20389;-89
2022/09/20 05:25:01;;;;;;;2.40;1.13;;;;;;;;;;5011832;28;20453;-90
2022/09/20 05:27:28;;;;;;;3.25;1.30;;;;;;;;;;5003847;28;20448;-89
2022/09/20 05:29:54;;;;;;;3.28;1.38;;;;;;;;;;5014715;28;20388;-90
2022/09/20 05:32:20;;;;;;;3.08;1.50;;;;;;;;;;5014589;28;20392;-91
2022/09/20 05:35:11;;;;;;;6.37;1.40;;;;;;;;;;5014312;28;20385;-91
2022/09/20 05:38:06;;;;;;;;;;;;;;;;;;;;;
2022/09/20 05:40:45;;;;;;;4.60;1.40;;;;;;;;;;4999937;28;20410;-91
2022/09/20 05:43:40;;;;;;;3.30;1.25;;;;;;;;;;5022114;28;20881;-91
2022/09/20 05:46:28;;;;;;;3.35;1.50;;;;;;;;;;4986942;28;20867;-91
2022/09/20 05:49:23;;;;;;;2.33;1.63;;;;;;;;;;5016074;28;20895;-92
2022/09/20 05:51:55;;;;;;;3.63;1.55;;;;;;;;;;5020811;28;20392;-91
2022/09/20 05:54:36;;;;;;;2.30;1.42;;;;;;;;;;5015385;28;20428;-90
2022/09/20 05:57:33;;;;;;;3.58;1.50;;;;;;;;;;5013578;28;20396;-91
2022/09/20 06:00:31;;;;;;;;;;;;;;;;;;;;;
2022/09/20 06:06:36;;;;;;;3.15;1.52;;;;;;;;;;4974826;28;20428;-91
2022/09/20 06:09:19;;;;;;;2.63;1.55;;;;;;;;;;4950466;28;20440;-92
2022/09/20 06:11:57;;;;;;;4.20;1.52;;;;;;;;;;5015319;28;20439;-90
2022/09/20 06:14:42;;;;;;;3.58;1.70;;;;;;;;;;5015572;28;20416;-91
2022/09/20 06:17:20;;;;;;;3.90;1.60;;;;;;;;;;5015400;28;20385;-91
2022/09/20 06:19:46;;;;;;;2.83;1.50;;;;;;;;;;4997745;28;20755;-90
2022/09/20 06:22:15;;;;;;;3.80;1.50;;;;;;;;;;5012696;28;20399;-90
2022/09/20 06:24:50;;;;;;;2.47;1.73;;;;;;;;;;5027973;28;20435;-89
2022/09/20 06:27:32;;;;;;;3.33;1.50;;;;;;;;;;4999732;28;20377;-91
2022/09/20 06:30:04;;;;;;;3.83;1.70;;;;;;;;;;5014699;28;20404;-89
2022/09/20 06:32:30;;;;;;;3.87;1.60;;;;;;;;;;5002576;28;20418;-92
2022/09/20 06:34:59;;;;;;;5.57;2.28;;;;;;;;;;5009704;28;20389;-90
2022/09/20 06:43:13;;;;;;;5.65;1.73;;;;;;;;;;5014785;28;20365;-89
2022/09/20 06:45:40;;;;;;;4.13;1.88;;;;;;;;;;5014349;28;20385;-91
2022/09/20 06:48:12;;;;;;;4.20;2.00;;;;;;;;;;5014256;28;20396;-91
2022/09/20 06:50:38;;;;;;;3.20;1.90;;;;;;;;;;5014634;28;20862;-92
2022/09/20 06:53:04;;;;;;;2.72;1.90;;;;;;;;;;5015971;28;20389;-90
2022/09/20 06:55:36;;;;;;;2.92;1.80;;;;;;;;;;5014193;28;20377;-88
2022/09/20 06:58:02;;;;;;;4.20;2.00;;;;;;;;;;5014036;28;20383;-87
2022/09/20 07:00:29;;;;;;;4.78;2.03;;;;;;;;;;5013448;28;20778;-89
2022/09/20 07:02:55;;;;;;;3.22;1.77;;;;;;;;;;5013562;28;20409;-90
2022/09/20 07:05:23;;;;;;;4.55;2.10;;;;;;;;;;5013500;28;20475;-89
2022/09/20 07:07:49;;;;;;;4.93;2.15;;;;;;;;;;5014014;28;20384;-89
2022/09/20 07:10:15;;;;;;;3.60;1.85;;;;;;;;;;5012014;28;20396;-89
2022/09/20 07:12:41;;;;;;;3.17;1.60;;;;;;;;;;5011843;28;20385;-88
2022/09/20 07:15:08;;;;;;;4.60;1.75;;;;;;;;;;4994917;28;20415;-88
2022/09/20 07:17:34;;;;;;;5.35;1.70;;;;;;;;;;5012265;28;20388;-88
2022/09/20 07:20:00;;;;;;;6.10;1.92;;;;;;;;;;5009048;28;20892;-91
2022/09/20 07:22:26;;;;;;;3.42;1.70;;;;;;;;;;5013902;28;20397;-92
2022/09/20 07:24:52;;;;;;;3.10;1.55;;;;;;;;;;5013532;28;20389;-91
2022/09/20 07:27:19;;;;;;;3.38;1.85;;;;;;;;;;5013408;28;20415;-90
2022/09/20 07:29:45;;;;;;;6.97;3.17;;;;;;;;;;5013644;28;20403;-90
2022/09/20 07:32:11;;;;;;;11.68;3.53;;;;;;;;;;5004648;28;20397;-90
2022/09/20 07:34:37;;;;;;;9.95;3.65;;;;;;;;;;5010884;28;20392;-91
2022/09/20 07:37:03;;;;;;;9.00;4.03;;;;;;;;;;5014137;28;20743;-93
2022/09/20 07:39:29;;;;;;;8.18;3.75;;;;;;;;;;5018167;28;20405;-92
2022/09/20 10:24:29;;;;;;;4.05;1.60;;;;;;;;;;5723998;23;20430;-94
2022/09/20 10:27:07;;;;;;;3.58;1.58;;;;;;;;;;5084107;28;20380;-93
2022/09/20 10:30:10;;;;;;;;;;;;;;;;;;;;;
2022/09/20 10:35:23;;;;;;;4.80;1.58;;;;;;;;;;5069164;28;20517;-90
2022/09/20 10:44:22;;;;;;;3.40;1.40;;;;;;;;;;4972254;28;20559;-91
2022/09/20 10:58:14;;;;;;;3.03;1.40;;;;;;;;;;5226144;23;20442;-93
2022/09/20 11:20:25;;;;;;;2.88;1.08;;;;;;;;;;5082534;28;20422;-93
2022/09/20 11:22:59;;;;;;;2.08;0.90;;;;;;;;;;5074828;28;20380;-92
2022/09/20 11:31:25;;;;;;;3.42;1.20;;;;;;;;;;5871345;22;20828;-92
2022/09/20 11:34:18;;;;;;;3.20;1.00;;;;;;;;;;5107061;28;20412;-92
2022/09/20 11:40:23;;;;;;;3.85;1.30;;;;;;;;;;5101002;28;20413;-91
2022/09/20 11:43:29;;;;;;;3.78;1.20;;;;;;;;;;5083787;28;20367;-91
2022/09/20 11:46:19;;;;;;;2.30;1.20;;;;;;;;;;5080806;28;20519;-93
2022/09/20 11:54:53;;;;;;;4.80;1.30;;;;;;;;;;5026516;28;20432;-90
2022/09/20 11:57:19;;;;;;;2.63;1.15;;;;;;;;;;5013251;28;20389;-90
2022/09/20 11:59:52;;;;;;;6.28;1.80;;;;;;;;;;5026636;28;20399;-89
2022/09/20 12:02:23;;;;;;;2.85;1.30;;;;;;;;;;5047096;28;20395;-92
2022/09/20 12:04:52;;;;;;;3.70;1.02;;;;;;;;;;5033564;28;20379;-90
2022/09/20 12:07:26;;;;;;;2.53;1.35;;;;;;;;;;5031735;28;20388;-90
2022/09/20 12:09:55;;;;;;;4.13;1.87;;;;;;;;;;5000205;28;21008;-93
2022/09/20 12:12:44;;;;;;;3.40;1.20;;;;;;;;;;5045600;28;20479;-90
2022/09/20 12:15:39;;;;;;;2.03;0.90;;;;;;;;;;5032278;28;20896;-90
2022/09/20 12:18:08;;;;;;;4.55;1.23;;;;;;;;;;5018672;28;20487;-91
2022/09/20 12:20:34;;;;;;;1.90;0.80;;;;;;;;;;5032484;28;20410;-90
2022/09/20 12:23:21;;;;;;;2.88;1.00;;;;;;;;;;5014591;28;20391;-91
2022/09/20 12:26:04;;;;;;;2.13;0.77;;;;;;;;;;5032917;28;20551;-90
2022/09/20 12:28:43;;;;;;;2.15;0.90;;;;;;;;;;5033809;28;20387;-91
2022/09/20 12:31:43;;;;;;;;;;;;;;;;;;;;;
2022/09/20 12:37:45;;;;;;;1.73;0.70;;;;;;;;;;5028665;28;20370;-93
2022/09/20 12:43:16;;;;;;;2.03;0.80;;;;;;;;;;5017689;28;20439;-93
2022/09/20 12:48:51;;;;;;;2.40;0.70;;;;;;;;;;4960820;28;20418;-92
2022/09/20 12:54:10;;;;;;;1.30;0.55;;;;;;;;;;4971522;28;20479;-88
2022/09/20 12:56:38;;;;;;;1.70;0.60;;;;;;;;;;4990489;28;20394;-91
2022/09/20 12:59:06;;;;;;;1.65;0.50;;;;;;;;;;4990689;28;20460;-89
2022/09/20 13:04:40;;;;;;;1.35;0.70;;;;;;;;;;4960664;28;20402;-93
2022/09/20 13:07:31;;;;;;;3.38;0.60;;;;;;;;;;5008101;28;20424;-92
2022/09/20 13:10:02;;;;;;;3.00;0.93;;;;;;;;;;5008014;28;20432;-91
2022/09/20 13:12:28;;;;;;;3.00;1.70;;;;;;;;;;5001033;28;20417;-91
2022/09/20 13:14:54;;;;;;;3.22;1.30;;;;;;;;;;5000129;28;20400;-91
2022/09/20 13:17:30;;;;;;;3.83;1.15;;;;;;;;;;5067056;28;20957;-92
2022/09/20 13:19:56;;;;;;;5.22;1.08;;;;;;;;;;4987057;28;20409;-91
2022/09/20 13:22:26;;;;;;;4.07;1.08;;;;;;;;;;5000032;28;20390;-91
2022/09/20 13:25:02;;;;;;;3.75;1.00;;;;;;;;;;5007084;28;20413;-92
2022/09/20 13:27:39;;;;;;;3.40;1.10;;;;;;;;;;4988449;28;20373;-89
2022/09/20 13:30:17;;;;;;;1.70;0.90;;;;;;;;;;4992983;28;20427;-93
2022/09/20 13:32:43;;;;;;;2.60;1.17;;;;;;;;;;4987150;28;20476;-90
2022/09/20 13:35:14;;;;;;;3.17;1.10;;;;;;;;;;5024313;28;20543;-91
2022/09/20 13:38:00;;;;;;;2.20;1.02;;;;;;;;;;5004138;28;20900;-92
2022/09/20 13:40:39;;;;;;;1.80;1.23;;;;;;;;;;4980227;28;20498;-91
2022/09/20 13:43:06;;;;;;;3.10;1.00;;;;;;;;;;5006005;28;20859;-90
2022/09/20 13:45:32;;;;;;;3.70;1.45;;;;;;;;;;4974943;28;20895;-90
2022/09/20 13:48:00;;;;;;;3.70;1.27;;;;;;;;;;4990310;28;20477;-91
2022/09/20 13:50:26;;;;;;;4.57;1.13;;;;;;;;;;5005242;28;20383;-93
2022/09/20 13:52:56;;;;;;;3.03;1.10;;;;;;;;;;5006089;28;20518;-90
2022/09/20 13:55:34;;;;;;;2.65;1.00;;;;;;;;;;5006439;28;20386;-91
2022/09/20 13:58:06;;;;;;;2.17;1.20;;;;;;;;;;4995431;28;20383;-90
2022/09/20 14:00:33;;;;;;;3.47;0.95;;;;;;;;;;5018145;28;20410;-91
2022/09/20 14:02:59;;;;;;;2.67;1.00;;;;;;;;;;4992424;28;20398;-91
2022/09/20 14:05:28;;;;;;;2.50;1.00;;;;;;;;;;4992411;28;20466;-91
2022/09/20 14:07:55;;;;;;;3.50;1.00;;;;;;;;;;4994758;28;20389;-90
2022/09/20 14:10:39;;;;;;;2.03;0.73;;;;;;;;;;5008228;28;20518;-90
2022/09/20 14:13:06;;;;;;;3.42;1.10;;;;;;;;;;4962274;28;20948;-90
2022/09/20 14:15:36;;;;;;;2.90;1.02;;;;;;;;;;4995986;28;20408;-90
2022/09/20 14:18:03;;;;;;;3.08;1.05;;;;;;;;;;4990574;28;20383;-89
2022/09/20 14:20:29;;;;;;;1.33;0.90;;;;;;;;;;4990272;28;21025;-89
2022/09/20 14:22:55;;;;;;;1.90;0.98;;;;;;;;;;4991275;28;20387;-89
2022/09/20 14:25:24;;;;;;;2.33;1.00;;;;;;;;;;4992072;28;20880;-89
2022/09/20 14:28:04;;;;;;;3.60;1.27;;;;;;;;;;4974891;28;20898;-91
2022/09/20 14:30:35;;;;;;;2.58;1.00;;;;;;;;;;5001445;28;20392;-90
2022/09/20 14:33:01;;;;;;;2.77;1.03;;;;;;;;;;4994968;28;20375;-88
2022/09/20 14:35:27;;;;;;;2.20;0.93;;;;;;;;;;4991687;28;20872;-89
2022/09/20 14:37:59;;;;;;;2.78;0.90;;;;;;;;;;4991591;28;20907;-90
2022/09/20 14:40:45;;;;;;;2.35;0.88;;;;;;;;;;4991567;28;20903;-91
2022/09/20 14:43:31;;;;;;;2.08;0.90;;;;;;;;;;4991399;28;20391;-88
2022/09/20 14:46:00;;;;;;;2.17;0.90;;;;;;;;;;4991571;28;20394;-90
2022/09/20 14:48:26;;;;;;;3.30;0.80;;;;;;;;;;4991476;28;20390;-89
2022/09/20 14:51:11;;;;;;;2.63;0.85;;;;;;;;;;4992164;28;20768;-90
2022/09/20 14:53:37;;;;;;;1.92;0.77;;;;;;;;;;4991477;28;20444;-90
2022/09/20 14:56:06;;;;;;;2.08;0.77;;;;;;;;;;4991878;28;20775;-88
2022/09/20 14:58:32;;;;;;;2.42;0.90;;;;;;;;;;4991641;28;20474;-90
2022/09/20 15:01:04;;;;;;;2.20;0.90;;;;;;;;;;4990103;28;20410;-89
2022/09/20 15:03:32;;;;;;;2.17;0.90;;;;;;;;;;4991209;28;20382;-90
2022/09/20 15:05:58;;;;;;;2.67;0.90;;;;;;;;;;4991261;28;20383;-90
2022/09/20 15:08:25;;;;;;;3.70;0.90;;;;;;;;;;4991328;28;20452;-89
2022/09/20 15:10:51;;;;;;;3.92;1.00;;;;;;;;;;4991336;28;20469;-89
2022/09/20 15:13:17;;;;;;;1.92;1.00;;;;;;;;;;4991227;28;20910;-89
2022/09/20 15:15:44;;;;;;;2.95;1.30;;;;;;;;;;4991447;28;20390;-89
2022/09/20 15:18:33;;;;;;;3.83;0.90;;;;;;;;;;5004283;28;20873;-91
2022/09/20 15:21:00;;;;;;;3.50;1.05;;;;;;;;;;4990874;28;20403;-90
2022/09/20 15:23:26;;;;;;;3.70;0.98;;;;;;;;;;4991019;28;20449;-89
2022/09/20 15:25:52;;;;;;;1.73;0.70;;;;;;;;;;4990082;28;20880;-88
2022/09/20 15:28:19;;;;;;;1.42;0.90;;;;;;;;;;4990893;28;20462;-91
2022/09/20 15:30:46;;;;;;;1.98;0.98;;;;;;;;;;4990746;28;20379;-88
2022/09/20 15:33:12;;;;;;;2.53;0.80;;;;;;;;;;5005952;28;20383;-90
2022/09/20 15:35:39;;;;;;;2.13;1.07;;;;;;;;;;4990793;28;20872;-89
2022/09/20 15:38:07;;;;;;;2.60;0.80;;;;;;;;;;4990734;28;20391;-89
2022/09/20 15:40:33;;;;;;;1.93;0.70;;;;;;;;;;4990630;28;20422;-89
2022/09/20 15:42:59;;;;;;;2.22;0.80;;;;;;;;;;4990764;28;20444;-89
2022/09/20 15:45:26;;;;;;;1.35;0.70;;;;;;;;;;4990794;28;20736;-89
2022/09/20 15:47:54;;;;;;;2.20;0.85;;;;;;;;;;4990949;28;20391;-89
2022/09/20 15:50:23;;;;;;;2.13;0.80;;;;;;;;;;5032147;28;20386;-89
2022/09/20 15:52:50;;;;;;;3.92;0.90;;;;;;;;;;4990559;28;20868;-91
2022/09/20 15:55:17;;;;;;;2.45;0.90;;;;;;;;;;4994227;28;20467;-88
2022/09/20 15:57:43;;;;;;;1.63;0.68;;;;;;;;;;5000345;28;20394;-89
2022/09/20 16:00:09;;;;;;;1.95;0.80;;;;;;;;;;5002429;28;20445;-90
2022/09/20 16:02:35;;;;;;;1.70;0.88;;;;;;;;;;5001981;28;20745;-90
2022/09/20 16:05:01;;;;;;;1.73;1.00;;;;;;;;;;4990304;28;20387;-89
2022/09/20 16:07:27;;;;;;;1.38;0.70;;;;;;;;;;4990572;28;20378;-91
2022/09/20 16:09:54;;;;;;;3.80;0.90;;;;;;;;;;4990693;28;20385;-89
2022/09/20 16:12:21;;;;;;;2.13;0.80;;;;;;;;;;4990200;28;20465;-89
2022/09/20 16:14:47;;;;;;;1.42;0.63;;;;;;;;;;4990257;28;20516;-89
2022/09/20 16:17:14;;;;;;;1.17;0.73;;;;;;;;;;4990476;28;20391;-90
2022/09/20 16:19:41;;;;;;;3.28;0.93;;;;;;;;;;4990186;28;20487;-90
2022/09/20 16:22:07;;;;;;;1.40;0.60;;;;;;;;;;4990091;28;20379;-89
2022/09/20 16:24:34;;;;;;;1.65;0.60;;;;;;;;;;4990191;28;20882;-90
2022/09/20 16:27:01;;;;;;;1.40;0.73;;;;;;;;;;4990279;28;20424;-89
2022/09/20 16:29:28;;;;;;;2.30;0.80;;;;;;;;;;4990116;28;20420;-88
2022/09/20 16:31:56;;;;;;;2.17;0.70;;;;;;;;;;4985727;28;20944;-89
2022/09/20 16:34:22;;;;;;;2.70;1.05;;;;;;;;;;5006978;28;20452;-90
2022/09/20 16:36:57;;;;;;;2.58;0.80;;;;;;;;;;5033628;28;20391;-91
2022/09/20 16:39:26;;;;;;;3.22;1.00;;;;;;;;;;4993473;28;20406;-90
2022/09/20 16:41:53;;;;;;;2.63;0.90;;;;;;;;;;5009869;28;20875;-89
2022/09/20 16:44:19;;;;;;;2.20;1.10;;;;;;;;;;5018711;28;20378;-89
2022/09/20 16:46:46;;;;;;;2.10;0.90;;;;;;;;;;5008300;28;21175;-89
2022/09/20 16:49:13;;;;;;;2.30;0.90;;;;;;;;;;4983223;28;20410;-91
2022/09/20 16:52:12;;;;;;;;;;;;;;;;;;;;;
2022/09/20 16:58:21;;;;;;;3.10;2.05;;;;;;;;;;4919596;29;20421;-91
2022/09/20 17:20:12;;;;;;;1.65;0.85;;;;;;;;;;4774562;29;20503;-92
2022/09/20 17:27:59;;;;;;;1.97;0.80;;;;;;;;;;3047835;23;20448;-91
2022/09/20 17:33:22;;;;;;;4.10;1.17;;;;;;;;;;5114995;23;20487;-94
2022/09/20 17:35:51;;;;;;;3.33;1.23;;;;;;;;;;5084314;28;20450;-92
2022/09/20 17:38:21;;;;;;;3.50;1.00;;;;;;;;;;5087386;28;20502;-92
2022/09/20 17:41:05;;;;;;;3.28;0.90;;;;;;;;;;5094995;28;20430;-92
2022/09/20 17:43:38;;;;;;;2.20;1.00;;;;;;;;;;5082238;28;20374;-93
2022/09/20 17:49:38;;;;;;;;;;;;;;;;;;;;;
2022/09/20 17:52:06;;;;;;;2.20;1.20;;;;;;;;;;4999295;28;20399;-92
2022/09/20 17:54:32;;;;;;;3.90;1.20;;;;;;;;;;5072868;28;20381;-91
2022/09/20 17:56:59;;;;;;;2.85;1.23;;;;;;;;;;5080649;28;20378;-92
2022/09/20 17:59:25;;;;;;;2.08;1.20;;;;;;;;;;5085335;28;20406;-92
2022/09/20 18:01:59;;;;;;;2.23;1.10;;;;;;;;;;5078360;28;20421;-92
2022/09/20 18:04:28;;;;;;;2.43;1.70;;;;;;;;;;5056388;28;20397;-91
2022/09/20 18:06:54;;;;;;;5.50;3.47;;;;;;;;;;5045278;28;20377;-93
2022/09/20 18:09:23;;;;;;;5.45;4.70;;;;;;;;;;5069709;28;20384;-90
2022/09/20 18:11:53;;;;;;;6.03;5.10;;;;;;;;;;5073659;28;20384;-91
2022/09/20 18:14:22;;;;;;;6.20;4.47;;;;;;;;;;5074684;28;20416;-89
2022/09/20 18:16:51;;;;;;;4.13;3.25;;;;;;;;;;5075026;28;20387;-92
2022/09/20 18:19:17;;;;;;;4.88;3.40;;;;;;;;;;5079422;28;20443;-92
2022/09/20 18:21:43;;;;;;;4.75;3.05;;;;;;;;;;5060508;28;20427;-91
2022/09/20 18:24:10;;;;;;;3.05;1.67;;;;;;;;;;5058541;28;20409;-92
2022/09/20 18:26:37;;;;;;;3.00;1.43;;;;;;;;;;5061153;28;20404;-92
2022/09/20 18:29:03;;;;;;;4.90;2.53;;;;;;;;;;5064770;28;20373;-92
2022/09/20 18:31:37;;;;;;;2.65;1.40;;;;;;;;;;5067783;28;20880;-90
2022/09/20 18:34:08;;;;;;;4.67;2.10;;;;;;;;;;5059649;28;20677;-90
2022/09/20 18:36:38;;;;;;;4.63;2.08;;;;;;;;;;5063534;28;20405;-91
2022/09/20 18:39:05;;;;;;;3.35;1.75;;;;;;;;;;5065290;28;20383;-93
2022/09/20 18:41:35;;;;;;;4.13;2.35;;;;;;;;;;5068120;28;20401;-92
2022/09/20 18:44:02;;;;;;;4.88;2.90;;;;;;;;;;5047197;28;20425;-90
2022/09/20 18:46:29;;;;;;;3.95;2.53;;;;;;;;;;5065408;28;20396;-92
2022/09/20 18:48:56;;;;;;;3.67;2.20;;;;;;;;;;5068519;28;20445;-91
2022/09/20 18:51:23;;;;;;;3.13;2.33;;;;;;;;;;5060342;28;20387;-91
2022/09/20 18:53:50;;;;;;;2.50;1.80;;;;;;;;;;5051217;28;20464;-89
2022/09/20 18:56:19;;;;;;;2.53;1.90;;;;;;;;;;5058149;28;20408;-90
2022/09/20 18:58:46;;;;;;;3.38;2.63;;;;;;;;;;5072168;28;20477;-90
2022/09/20 19:01:31;;;;;;;3.93;2.23;;;;;;;;;;5070523;28;20404;-89
2022/09/20 19:04:12;;;;;;;6.25;3.22;;;;;;;;;;5069786;28;20379;-90
2022/09/20 19:06:51;;;;;;;4.57;3.00;;;;;;;;;;5059892;28;20378;-91
2022/09/20 19:09:21;;;;;;;5.80;3.70;;;;;;;;;;5061001;28;20734;-91
2022/09/20 19:11:54;;;;;;;5.50;3.28;;;;;;;;;;5057611;28;20389;-91
2022/09/20 19:14:27;;;;;;;5.90;2.72;;;;;;;;;;5062408;28;20419;-92
2022/09/20 19:16:58;;;;;;;3.25;2.20;;;;;;;;;;5066802;28;20387;-92
2022/09/20 19:19:34;;;;;;;3.58;2.08;;;;;;;;;;5059642;28;20413;-92
2022/09/20 19:22:00;;;;;;;2.95;2.00;;;;;;;;;;5073018;28;20403;-92
2022/09/20 19:24:35;;;;;;;3.30;2.15;;;;;;;;;;5071855;28;20733;-91
2022/09/20 19:27:03;;;;;;;2.10;1.90;;;;;;;;;;5063837;28;20852;-91
2022/09/20 19:29:30;;;;;;;2.88;1.77;;;;;;;;;;5065074;28;20398;-91
2022/09/20 19:31:57;;;;;;;3.72;2.70;;;;;;;;;;5071444;28;20460;-92
2022/09/20 19:34:23;;;;;;;3.78;2.70;;;;;;;;;;5065266;28;20399;-92
2022/09/20 19:36:50;;;;;;;3.28;2.97;;;;;;;;;;5063167;28;20411;-91
2022/09/20 19:39:26;;;;;;;3.63;3.03;;;;;;;;;;5065601;28;20801;-91
2022/09/20 19:41:56;;;;;;;5.15;2.75;;;;;;;;;;5056402;28;20400;-91
2022/09/20 19:44:38;;;;;;;3.40;2.67;;;;;;;;;;5070197;28;20451;-91
2022/09/20 19:47:13;;;;;;;4.13;3.35;;;;;;;;;;5070391;28;20405;-91
2022/09/20 19:49:45;;;;;;;5.57;2.90;;;;;;;;;;5073422;28;20423;-90
2022/09/20 19:52:12;;;;;;;2.50;2.30;;;;;;;;;;5070651;28;20397;-92
2022/09/20 19:54:38;;;;;;;3.50;2.40;;;;;;;;;;5072599;28;20384;-92
2022/09/20 19:57:07;;;;;;;3.45;1.90;;;;;;;;;;5087971;28;20382;-90
2022/09/20 19:59:33;;;;;;;4.20;2.33;;;;;;;;;;5079139;28;20404;-90
2022/09/20 20:01:59;;;;;;;2.97;2.10;;;;;;;;;;5083254;28;20380;-92
2022/09/20 20:04:25;;;;;;;4.85;2.30;;;;;;;;;;5023254;28;20376;-92
2022/09/20 20:06:54;;;;;;;4.60;3.50;;;;;;;;;;5072230;28;20460;-91
2022/09/20 20:09:24;;;;;;;3.67;2.55;;;;;;;;;;5072414;28;20384;-90
2022/09/20 20:11:58;;;;;;;4.10;3.20;;;;;;;;;;5072034;28;20391;-90
2022/09/20 20:14:49;;;;;;;6.05;3.40;;;;;;;;;;5064007;28;20470;-90
2022/09/20 20:17:38;;;;;;;5.80;4.97;;;;;;;;;;5073050;28;20738;-89
2022/09/20 20:20:15;;;;;;;8.97;5.43;;;;;;;;;;5065216;28;20427;-89
2022/09/20 20:22:44;;;;;;;6.32;4.93;;;;;;;;;;5070020;28;20380;-88
2022/09/20 20:25:25;;;;;;;4.10;3.65;;;;;;;;;;5071165;28;20397;-88
2022/09/20 20:27:51;;;;;;;3.78;2.95;;;;;;;;;;4989111;28;20390;-87
2022/09/20 20:30:19;;;;;;;4.45;2.78;;;;;;;;;;4970773;28;20923;-88
2022/09/20 20:32:45;;;;;;;3.53;2.70;;;;;;;;;;4972154;28;21005;-88
2022/09/20 20:35:13;;;;;;;4.32;2.58;;;;;;;;;;4990094;28;20394;-89
2022/09/20 20:37:39;;;;;;;3.33;2.40;;;;;;;;;;5041153;28;20410;-88
2022/09/20 20:40:10;;;;;;;4.37;2.50;;;;;;;;;;5072106;28;20834;-89
2022/09/20 20:42:37;;;;;;;3.47;2.40;;;;;;;;;;5071905;28;20376;-90
2022/09/20 20:45:03;;;;;;;2.83;2.30;;;;;;;;;;5072477;28;20425;-88
2022/09/20 20:47:29;;;;;;;3.95;2.30;;;;;;;;;;5060171;28;20381;-90
2022/09/20 20:49:55;;;;;;;3.17;2.50;;;;;;;;;;5068841;28;20390;-89
2022/09/20 20:52:21;;;;;;;3.42;2.35;;;;;;;;;;5069964;28;20783;-90
2022/09/20 20:54:47;;;;;;;3.30;2.30;;;;;;;;;;5071297;28;20392;-88
2022/09/20 20:57:15;;;;;;;3.35;2.15;;;;;;;;;;5071092;28;20389;-88
2022/09/20 20:59:45;;;;;;;3.67;2.20;;;;;;;;;;5068243;28;20407;-89
2022/09/20 21:02:11;;;;;;;3.45;2.03;;;;;;;;;;5071159;28;20706;-89
2022/09/20 21:04:38;;;;;;;5.75;2.28;;;;;;;;;;5072281;28;20462;-88
2022/09/20 21:07:05;;;;;;;2.75;2.10;;;;;;;;;;5072352;28;20736;-88
2022/09/20 21:09:31;;;;;;;3.72;2.30;;;;;;;;;;5071528;28;20380;-87
2022/09/20 21:11:57;;;;;;;4.20;3.43;;;;;;;;;;5071360;28;20402;-88
2022/09/20 21:14:23;;;;;;;5.40;3.80;;;;;;;;;;5071882;28;20398;-89
2022/09/20 21:16:50;;;;;;;4.90;3.17;;;;;;;;;;5071454;28;20388;-89
2022/09/20 21:19:17;;;;;;;3.80;3.38;;;;;;;;;;5071351;28;20386;-88
2022/09/20 21:21:44;;;;;;;4.97;3.55;;;;;;;;;;5072096;28;20414;-88
2022/09/20 21:24:12;;;;;;;4.40;2.88;;;;;;;;;;5065682;28;20391;-88
2022/09/20 21:26:38;;;;;;;3.20;2.37;;;;;;;;;;5068654;28;21268;-89
2022/09/20 21:29:06;;;;;;;4.40;2.10;;;;;;;;;;5073490;28;20390;-88
2022/09/20 21:31:33;;;;;;;2.70;1.70;;;;;;;;;;5065080;28;20433;-90
2022/09/20 21:33:59;;;;;;;2.35;1.70;;;;;;;;;;5075941;28;20868;-88
2022/09/20 21:36:27;;;;;;;2.93;1.70;;;;;;;;;;5075966;28;20410;-90
2022/09/20 21:38:53;;;;;;;2.15;1.60;;;;;;;;;;5075622;28;20380;-89
2022/09/20 21:41:23;;;;;;;5.00;1.60;;;;;;;;;;5054092;28;20836;-89
2022/09/20 21:43:54;;;;;;;2.28;1.70;;;;;;;;;;5074874;28;20434;-88
2022/09/20 21:46:21;;;;;;;3.17;1.67;;;;;;;;;;5073054;28;20372;-88
2022/09/20 21:48:49;;;;;;;2.13;1.60;;;;;;;;;;5074539;28;20384;-87
2022/09/20 21:51:17;;;;;;;2.95;1.63;;;;;;;;;;5073835;28;20379;-88
2022/09/20 21:53:43;;;;;;;4.25;1.70;;;;;;;;;;5074837;28;20994;-88
2022/09/20 21:56:11;;;;;;;3.28;1.90;;;;;;;;;;5075409;28;20399;-88
2022/09/20 21:58:40;;;;;;;4.32;1.73;;;;;;;;;;5076317;28;20374;-88
